Time;durP1;ratioP1;P1;durP2;ratioP2;P2;SDS_P1;SDS_P2;PMS_P1;PMS_P2;Temp;Humidity;BMP_temperature;BMP_pressure;BME280_temperature;BME280_humidity;BME280_pressure;Samples;Min_cycle;Max_cycle;Signal;HPM_P1;HPM_P2
2021/04/07 00:01:45;;;;;;;6.60;6.10;;;;;;;1.01;37.91;100290.31;4948351;28;97118;-73
2021/04/07 00:04:12;;;;;;;7.00;6.30;;;;;;;1.00;37.68;100288.50;4963005;28;100971;-74
2021/04/07 00:06:40;;;;;;;7.53;7.00;;;;;;;0.96;37.92;100297.91;4948162;28;99226;-73
2021/04/07 00:09:08;;;;;;;7.00;6.25;;;;;;;0.96;38.25;100297.91;4964703;28;96984;-73
2021/04/07 00:11:35;;;;;;;6.35;5.95;;;;;;;0.96;38.62;100297.00;4947963;28;97344;-73
2021/04/07 00:14:05;;;;;;;7.90;7.05;;;;;;;1.01;38.23;100291.19;4948045;28;100337;-73
2021/04/07 00:16:32;;;;;;;7.03;6.43;;;;;;;0.99;38.52;100291.94;4965303;28;98651;-73
2021/04/07 00:18:59;;;;;;;9.02;7.50;;;;;;;0.96;38.15;100294.38;4947771;28;97966;-73
2021/04/07 00:21:27;;;;;;;7.63;7.00;;;;;;;0.91;38.01;100288.03;4980790;28;97343;-73
2021/04/07 00:23:54;;;;;;;7.82;7.13;;;;;;;0.90;38.30;100301.94;4965393;28;97399;-72
2021/04/07 00:26:21;;;;;;;7.38;6.72;;;;;;;0.81;38.67;100285.75;4965880;28;98061;-74
2021/04/07 00:28:48;;;;;;;8.27;7.47;;;;;;;0.83;38.87;100289.38;4947562;28;96981;-75
2021/04/07 00:31:14;;;;;;;7.40;6.57;;;;;;;0.84;38.70;100297.28;4980472;28;96873;-76
2021/04/07 00:33:41;;;;;;;7.40;6.80;;;;;;;0.84;38.28;100286.81;4964696;28;97710;-75
2021/04/07 00:36:09;;;;;;;7.70;7.00;;;;;;;0.85;38.50;100287.72;4965730;28;98990;-74
2021/04/07 00:38:36;;;;;;;8.48;7.60;;;;;;;0.86;38.78;100299.97;4931856;28;97481;-74
2021/04/07 00:41:03;;;;;;;7.82;7.00;;;;;;;0.86;39.57;100305.22;4963441;28;96890;-75
2021/04/07 00:43:30;;;;;;;7.18;6.68;;;;;;;0.88;38.38;100299.25;4965353;28;97903;-74
2021/04/07 00:45:57;;;;;;;8.35;7.50;;;;;;;0.92;38.45;100305.56;4946430;28;100892;-75
2021/04/07 00:48:24;;;;;;;8.15;7.35;;;;;;;0.97;38.19;100304.06;4964626;28;97661;-75
2021/04/07 00:50:51;;;;;;;8.30;7.50;;;;;;;1.01;38.20;100301.66;4964735;28;97087;-75
2021/04/07 00:53:19;;;;;;;8.38;7.43;;;;;;;1.03;37.92;100305.25;4963933;28;97842;-74
2021/04/07 00:55:46;;;;;;;8.65;7.75;;;;;;;1.05;38.49;100308.88;4931987;28;99144;-73
2021/04/07 00:58:13;;;;;;;8.52;7.78;;;;;;;1.04;38.53;100314.03;4965886;28;96811;-74
2021/04/07 01:00:40;;;;;;;8.50;7.78;;;;;;;1.05;38.27;100311.47;4963349;28;97222;-74
2021/04/07 01:03:08;;;;;;;8.30;7.43;;;;;;;1.04;38.81;100312.31;4966715;28;99366;-75
2021/04/07 01:05:35;;;;;;;8.70;7.60;;;;;;;1.01;38.56;100309.53;4947618;28;98963;-74
2021/04/07 01:08:02;;;;;;;8.60;7.72;;;;;;;1.04;38.56;100311.41;4947398;28;97216;-73
2021/04/07 01:10:29;;;;;;;7.80;7.15;;;;;;;1.06;38.58;100318.53;4947608;28;98056;-73
2021/04/07 01:12:56;;;;;;;9.10;8.15;;;;;;;1.07;38.35;100317.69;4963706;28;99536;-73
2021/04/07 01:15:23;;;;;;;9.02;8.05;;;;;;;1.10;38.43;100312.59;4956079;28;98543;-73
2021/04/07 01:17:50;;;;;;;12.63;8.70;;;;;;;1.07;38.23;100317.69;4938518;28;97999;-74
2021/04/07 01:20:19;;;;;;;9.05;8.07;;;;;;;1.05;38.57;100319.34;4921585;28;96812;-73
2021/04/07 01:22:49;;;;;;;8.63;7.65;;;;;;;1.08;38.33;100318.59;4944496;28;99755;-74
2021/04/07 01:25:16;;;;;;;8.68;7.90;;;;;;;1.10;38.74;100322.22;4948692;28;98157;-74
2021/04/07 01:27:43;;;;;;;9.38;8.20;;;;;;;1.07;38.91;100319.41;4946334;28;97957;-73
2021/04/07 01:30:13;;;;;;;10.13;7.07;;;;;;;1.11;38.67;100318.75;4948077;28;97032;-74
2021/04/07 01:32:41;;;;;;;9.40;7.95;;;;;;;1.15;38.73;100325.97;4951904;28;98435;-74
2021/04/07 01:35:10;;;;;;;8.00;7.32;;;;;;;1.20;38.63;100324.47;4936636;28;98920;-73
2021/04/07 01:37:37;;;;;;;8.00;6.75;;;;;;;1.25;38.44;100332.56;4946809;28;97456;-73
2021/04/07 01:40:06;;;;;;;9.63;7.68;;;;;;;1.20;38.95;100334.94;4946737;28;97111;-73
2021/04/07 01:42:34;;;;;;;7.93;7.20;;;;;;;1.15;38.77;100333.81;4947126;28;99627;-74
2021/04/07 01:45:03;;;;;;;8.70;7.90;;;;;;;1.17;38.87;100340.94;4978935;28;99282;-74
2021/04/07 01:47:30;;;;;;;7.20;6.63;;;;;;;1.20;38.62;100345.44;4947266;28;97627;-74
2021/04/07 01:49:59;;;;;;;7.75;7.00;;;;;;;1.18;38.72;100341.81;4965388;28;96813;-72
2021/04/07 01:52:27;;;;;;;8.40;7.68;;;;;;;1.20;38.33;100340.19;4945924;28;101950;-72
2021/04/07 01:54:54;;;;;;;8.15;7.28;;;;;;;1.24;38.59;100344.78;4938693;28;99251;-73
2021/04/07 01:57:21;;;;;;;7.38;6.75;;;;;;;1.22;38.61;100349.03;4970427;28;97767;-73
2021/04/07 01:59:51;;;;;;;7.55;6.85;;;;;;;1.17;38.63;100345.28;4946545;28;97330;-73
2021/04/07 02:02:18;;;;;;;8.68;7.80;;;;;;;1.15;38.83;100341.69;4976102;28;100883;-74
2021/04/07 02:04:45;;;;;;;7.90;7.25;;;;;;;1.15;38.11;100342.59;4946414;28;99161;-74
2021/04/07 02:07:13;;;;;;;7.10;6.40;;;;;;;1.16;38.40;100348.72;4960284;28;96955;-73
2021/04/07 02:09:40;;;;;;;7.70;6.40;;;;;;;1.13;38.45;100348.56;4947355;28;97740;-74
2021/04/07 02:12:07;;;;;;;6.60;5.93;;;;;;;1.11;38.55;100340.63;4964151;28;98758;-75
2021/04/07 02:14:34;;;;;;;7.85;6.63;;;;;;;1.14;38.33;100342.50;4963688;28;97952;-73
2021/04/07 02:17:03;;;;;;;8.68;7.00;;;;;;;1.14;38.91;100350.38;4978096;28;99024;-74
2021/04/07 02:19:32;;;;;;;7.05;6.38;;;;;;;1.18;38.58;100352.31;4946568;28;96832;-73
2021/04/07 02:22:04;;;;;;;7.22;6.63;;;;;;;1.19;38.71;100356.75;4962865;28;97793;-73
2021/04/07 02:24:31;;;;;;;6.70;6.03;;;;;;;1.20;38.27;100361.16;4963480;28;97966;-74
2021/04/07 02:27:01;;;;;;;6.38;5.78;;;;;;;1.14;38.71;100366.09;4977467;28;97414;-73
2021/04/07 02:29:28;;;;;;;6.38;5.78;;;;;;;1.07;38.36;100363.94;4945818;28;97485;-74
2021/04/07 02:31:55;;;;;;;6.72;6.22;;;;;;;1.02;38.57;100373.28;4945493;28;99063;-73
2021/04/07 02:34:23;;;;;;;7.68;6.97;;;;;;;1.02;38.28;100370.69;4963679;28;98070;-74
2021/04/07 02:36:49;;;;;;;6.63;5.53;;;;;;;1.03;38.59;100377.72;4962988;28;96772;-74
2021/04/07 02:39:16;;;;;;;7.00;5.88;;;;;;;0.94;38.04;100369.41;4945409;28;97039;-74
2021/04/07 02:41:43;;;;;;;8.88;6.95;;;;;;;0.86;39.17;100383.78;4961009;28;97961;-74
2021/04/07 02:44:10;;;;;;;7.07;6.38;;;;;;;0.86;38.85;100381.19;4980234;28;100502;-74
2021/04/07 02:46:37;;;;;;;7.43;6.82;;;;;;;0.86;39.12;100387.31;4963855;28;97553;-74
2021/04/07 02:49:04;;;;;;;8.25;6.35;;;;;;;0.82;38.97;100385.34;4964327;28;96835;-74
2021/04/07 02:51:32;;;;;;;6.18;5.63;;;;;;;0.83;38.90;100383.63;4961184;28;98169;-74
2021/04/07 02:53:58;;;;;;;7.75;6.00;;;;;;;0.82;38.96;100400.16;4946300;28;100380;-73
2021/04/07 02:56:25;;;;;;;6.88;6.32;;;;;;;0.84;38.93;100407.28;4946460;28;96898;-74
2021/04/07 02:58:52;;;;;;;7.93;6.22;;;;;;;0.81;38.75;100398.38;4946300;28;97509;-74
2021/04/07 03:01:19;;;;;;;7.60;5.57;;;;;;;0.78;38.91;100406.94;4963805;28;98885;-74
2021/04/07 03:03:45;;;;;;;7.90;6.45;;;;;;;0.79;38.68;100403.53;4964542;28;97585;-73
2021/04/07 03:06:12;;;;;;;10.48;5.90;;;;;;;0.78;38.82;100401.72;4964036;28;96959;-74
2021/04/07 03:08:40;;;;;;;8.00;6.25;;;;;;;0.83;38.65;100399.34;4962885;28;96865;-74
2021/04/07 03:11:08;;;;;;;8.40;6.00;;;;;;;0.87;38.32;100404.81;4946312;28;99037;-75
2021/04/07 03:13:35;;;;;;;9.18;7.07;;;;;;;0.88;38.37;100413.59;4946289;28;99812;-75
2021/04/07 03:16:02;;;;;;;6.97;6.40;;;;;;;0.87;38.56;100394.34;4946148;28;97048;-74
2021/04/07 03:18:29;;;;;;;7.45;6.40;;;;;;;0.92;38.41;100405.09;4945051;28;97560;-74
2021/04/07 03:20:55;;;;;;;7.35;6.68;;;;;;;0.96;38.64;100404.41;4964979;28;98213;-74
2021/04/07 03:23:22;;;;;;;8.38;6.80;;;;;;;0.92;38.41;100400.72;4963948;28;98907;-75
2021/04/07 03:25:50;;;;;;;8.45;7.72;;;;;;;0.90;38.51;100404.09;4978592;28;97975;-74
2021/04/07 03:28:17;;;;;;;10.35;7.43;;;;;;;0.91;38.64;100405.88;4929681;28;97149;-74
2021/04/07 03:30:49;;;;;;;7.80;6.57;;;;;;;0.95;38.41;100407.84;4945682;28;100329;-74
2021/04/07 03:33:18;;;;;;;8.98;7.20;;;;;;;0.90;39.00;100407.63;4965860;28;98516;-74
2021/04/07 03:35:44;;;;;;;12.73;7.00;;;;;;;0.92;38.28;100415.56;4948005;28;96880;-74
2021/04/07 03:38:11;;;;;;;7.72;6.97;;;;;;;0.93;38.58;100423.50;4949618;28;97551;-74
2021/04/07 03:40:39;;;;;;;8.07;7.07;;;;;;;0.95;38.56;100432.34;4966847;28;99105;-75
2021/04/07 03:43:07;;;;;;;7.40;6.47;;;;;;;0.93;38.26;100430.44;4948462;28;98248;-74
2021/04/07 03:45:34;;;;;;;10.65;7.47;;;;;;;0.99;38.70;100438.63;4982098;28;96828;-74
2021/04/07 03:48:02;;;;;;;11.32;7.88;;;;;;;0.94;38.70;100451.47;4949224;28;97633;-73
2021/04/07 03:50:29;;;;;;;10.13;7.25;;;;;;;0.91;38.57;100440.84;4948396;28;99338;-73
2021/04/07 03:52:56;;;;;;;9.75;6.50;;;;;;;0.92;38.30;100452.22;4965046;28;99573;-73
2021/04/07 03:55:23;;;;;;;8.18;7.30;;;;;;;0.95;38.32;100449.75;4949292;28;98241;-72
2021/04/07 03:57:49;;;;;;;9.18;6.80;;;;;;;0.91;38.51;100446.09;4965459;28;97688;-73
2021/04/07 04:00:19;;;;;;;9.82;7.72;;;;;;;0.95;38.72;100450.66;4948380;28;99368;-73
2021/04/07 04:02:46;;;;;;;14.35;8.57;;;;;;;0.98;38.76;100455.16;4965373;28;98834;-74
2021/04/07 04:05:13;;;;;;;8.63;7.63;;;;;;;1.01;38.66;100457.97;4948537;28;97257;-74
2021/04/07 04:07:40;;;;;;;8.57;7.63;;;;;;;1.04;38.35;100455.50;4964727;28;98137;-74
2021/04/07 04:10:07;;;;;;;11.85;7.22;;;;;;;1.02;38.37;100464.97;4967063;28;99450;-74
2021/04/07 04:12:34;;;;;;;10.48;6.88;;;;;;;1.07;38.36;100472.28;4981804;28;97642;-74
2021/04/07 04:15:02;;;;;;;9.68;6.45;;;;;;;1.05;38.27;100462.56;4967505;28;96994;-73
2021/04/07 04:17:29;;;;;;;7.30;6.53;;;;;;;1.02;38.47;100472.84;4948551;28;97308;-74
2021/04/07 04:19:57;;;;;;;7.82;5.97;;;;;;;1.02;38.52;100476.38;4932381;28;100593;-74
2021/04/07 04:22:24;;;;;;;7.93;6.50;;;;;;;1.04;38.12;100471.22;4968145;28;97569;-74
2021/04/07 04:24:51;;;;;;;6.70;6.15;;;;;;;1.08;38.63;100478.44;4959242;28;97287;-74
2021/04/07 04:27:18;;;;;;;12.48;6.57;;;;;;;1.06;37.99;100486.22;4965467;28;97033;-73
2021/04/07 04:29:44;;;;;;;8.88;5.93;;;;;;;0.94;38.15;100487.25;4948316;28;100464;-73
2021/04/07 04:32:11;;;;;;;8.75;6.63;;;;;;;0.95;38.40;100494.28;4981714;28;97630;-74
2021/04/07 04:34:39;;;;;;;8.98;5.93;;;;;;;0.92;38.44;100504.63;4968034;28;97339;-73
2021/04/07 04:37:06;;;;;;;8.40;5.88;;;;;;;0.92;38.14;100507.22;4949380;28;97064;-73
2021/04/07 04:39:33;;;;;;;4.90;4.65;;;;;;;0.89;38.30;100501.81;4967233;28;100441;-74
2021/04/07 04:41:59;;;;;;;6.47;4.80;;;;;;;0.89;38.19;100512.28;4966865;28;98976;-74
2021/04/07 04:44:27;;;;;;;8.40;5.82;;;;;;;0.90;38.54;100495.78;4965787;28;97592;-74
2021/04/07 04:46:54;;;;;;;7.35;6.75;;;;;;;0.90;38.53;100506.25;4964503;28;97142;-74
2021/04/07 04:49:20;;;;;;;8.50;5.97;;;;;;;0.89;38.44;100500.09;4964171;28;98317;-74
2021/04/07 04:51:48;;;;;;;9.18;6.47;;;;;;;0.92;38.36;100509.84;4964874;28;100086;-74
2021/04/07 04:54:17;;;;;;;9.20;6.13;;;;;;;0.93;38.38;100506.41;4963943;28;96831;-74
2021/04/07 04:56:44;;;;;;;5.53;5.13;;;;;;;0.96;38.04;100496.06;4964341;28;97947;-73
2021/04/07 04:59:11;;;;;;;5.65;5.07;;;;;;;0.97;38.23;100504.06;4982011;28;99810;-73
2021/04/07 05:01:37;;;;;;;14.40;5.40;;;;;;;0.96;38.15;100511.78;4933490;28;100474;-73
2021/04/07 05:04:05;;;;;;;6.65;6.05;;;;;;;0.94;38.57;100509.09;4982769;28;98430;-73
2021/04/07 05:06:33;;;;;;;7.10;5.78;;;;;;;0.95;38.08;100513.53;4950873;28;97239;-73
2021/04/07 05:09:01;;;;;;;5.10;4.80;;;;;;;0.88;38.25;100506.16;4948370;28;100623;-74
2021/04/07 05:11:28;;;;;;;6.03;5.53;;;;;;;0.83;38.42;100525.06;4950288;28;97694;-73
2021/04/07 05:13:55;;;;;;;6.03;5.50;;;;;;;0.82;38.15;100518.00;4955227;28;97449;-74
2021/04/07 05:16:21;;;;;;;11.13;5.82;;;;;;;0.78;38.19;100518.63;4967530;28;97335;-74
2021/04/07 05:18:48;;;;;;;6.10;5.22;;;;;;;0.81;38.13;100526.69;4933850;28;99028;-74
2021/04/07 05:21:15;;;;;;;6.70;6.00;;;;;;;0.79;38.43;100530.94;4965240;28;99597;-75
2021/04/07 05:23:42;;;;;;;6.95;6.00;;;;;;;0.80;38.45;100524.88;4947975;28;97828;-75
2021/04/07 05:26:09;;;;;;;6.53;5.72;;;;;;;0.79;38.17;100534.47;4948998;28;97117;-75
2021/04/07 05:28:36;;;;;;;7.53;5.68;;;;;;;0.75;38.08;100539.44;4963764;28;97785;-74
2021/04/07 05:31:04;;;;;;;9.10;5.90;;;;;;;0.73;38.26;100543.69;4946674;28;100945;-75
2021/04/07 05:33:32;;;;;;;5.43;4.90;;;;;;;0.74;38.01;100551.63;4976441;28;96868;-74
2021/04/07 05:36:01;;;;;;;7.72;5.70;;;;;;;0.75;38.08;100558.66;4964532;28;97804;-75
2021/04/07 05:38:28;;;;;;;7.93;5.38;;;;;;;0.78;37.98;100553.59;4962509;28;99445;-74
2021/04/07 05:40:58;;;;;;;6.82;5.72;;;;;;;0.79;38.19;100559.75;4947869;28;99616;-74
2021/04/07 05:43:26;;;;;;;6.20;5.65;;;;;;;0.79;38.05;100560.66;4946071;28;97445;-75
2021/04/07 05:45:53;;;;;;;6.53;5.80;;;;;;;0.80;38.19;100564.16;4963905;28;98215;-75
2021/04/07 05:48:20;;;;;;;7.35;5.88;;;;;;;0.79;38.22;100565.88;4978150;28;99912;-73
2021/04/07 05:51:06;;;;;;;8.98;6.68;;;;;;;0.78;38.17;100560.53;4977594;28;99468;-74
2021/04/07 05:53:32;;;;;;;8.27;6.15;;;;;;;0.82;38.18;100565.13;4955439;28;96979;-74
2021/04/07 05:56:19;;;;;;;8.70;7.05;;;;;;;0.81;38.18;100573.81;4929747;28;96809;-75
2021/04/07 05:58:47;;;;;;;8.40;6.38;;;;;;;0.79;37.97;100580.69;4977817;28;99385;-75
2021/04/07 06:01:13;;;;;;;13.07;7.13;;;;;;;0.77;38.32;100571.84;4964257;28;98040;-74
2021/04/07 06:03:40;;;;;;;7.20;6.60;;;;;;;0.73;38.35;100575.09;4959794;28;97062;-74
2021/04/07 06:06:08;;;;;;;8.45;7.13;;;;;;;0.72;38.29;100573.31;4943428;28;97609;-74
2021/04/07 06:08:34;;;;;;;7.63;7.00;;;;;;;0.74;38.36;100582.16;4945159;28;99636;-76
2021/04/07 06:11:02;;;;;;;7.57;6.88;;;;;;;0.76;38.15;100586.66;4943616;28;100419;-75
2021/04/07 06:13:29;;;;;;;7.72;6.40;;;;;;;0.77;38.18;100584.94;4946799;28;98608;-75
2021/04/07 06:15:57;;;;;;;7.15;6.38;;;;;;;0.81;38.20;100587.78;4963473;28;97007;-75
2021/04/07 06:18:23;;;;;;;8.68;6.65;;;;;;;0.81;38.45;100600.00;4961310;28;98959;-75
2021/04/07 06:20:50;;;;;;;7.78;7.00;;;;;;;0.79;38.20;100596.41;4962896;28;98183;-75
2021/04/07 06:23:19;;;;;;;10.30;6.93;;;;;;;0.78;38.24;100598.13;4977389;28;96923;-75
2021/04/07 06:25:47;;;;;;;7.28;6.40;;;;;;;0.79;38.32;100586.84;4962266;28;96968;-76
2021/04/07 06:28:15;;;;;;;8.65;6.32;;;;;;;0.85;38.13;100596.75;4977554;28;100296;-75
2021/04/07 06:30:43;;;;;;;8.07;5.93;;;;;;;0.86;38.10;100622.13;4978904;28;99325;-74
2021/04/07 06:33:16;;;;;;;6.90;6.30;;;;;;;0.86;38.65;100603.78;4963977;28;98346;-74
2021/04/07 06:35:46;;;;;;;9.90;6.45;;;;;;;0.89;38.46;100606.56;4945999;28;97612;-74
2021/04/07 06:38:13;;;;;;;8.20;6.28;;;;;;;0.91;38.23;100607.56;4945108;28;99108;-74
2021/04/07 06:40:40;;;;;;;7.75;6.65;;;;;;;0.89;38.10;100604.88;4963420;28;97983;-74
2021/04/07 06:43:06;;;;;;;9.15;5.95;;;;;;;0.92;37.98;100630.34;4961198;28;98465;-75
2021/04/07 06:45:35;;;;;;;7.45;6.85;;;;;;;0.93;38.04;100613.78;4963995;28;97778;-74
2021/04/07 06:48:02;;;;;;;6.57;5.90;;;;;;;0.95;37.98;100615.69;4963374;28;98160;-73
2021/04/07 06:50:30;;;;;;;10.95;6.03;;;;;;;0.97;38.13;100628.88;4945401;28;98978;-76
2021/04/07 06:52:59;;;;;;;8.32;5.80;;;;;;;0.95;37.72;100614.78;4964325;28;96840;-75
2021/04/07 06:55:26;;;;;;;6.60;5.40;;;;;;;0.85;38.22;100612.47;4978673;28;97597;-75
2021/04/07 06:57:53;;;;;;;6.63;5.80;;;;;;;0.90;37.92;100631.97;4961321;28;99106;-75
2021/04/07 07:00:21;;;;;;;6.63;5.88;;;;;;;0.95;38.03;100627.88;4960731;28;99402;-75
2021/04/07 07:02:48;;;;;;;9.43;5.45;;;;;;;0.96;38.12;100632.28;4952402;28;96843;-75
2021/04/07 07:05:17;;;;;;;7.03;5.40;;;;;;;0.99;37.94;100625.53;4963514;28;97994;-75
2021/04/07 07:07:44;;;;;;;6.75;6.18;;;;;;;1.03;38.19;100635.34;4930841;28;99723;-75
2021/04/07 07:10:12;;;;;;;9.35;5.75;;;;;;;1.08;37.40;100636.53;4953397;28;99415;-76
2021/04/07 07:12:40;;;;;;;5.53;5.07;;;;;;;1.14;37.67;100635.97;4965246;28;98844;-75
2021/04/07 07:15:07;;;;;;;7.32;5.70;;;;;;;1.12;37.53;100632.38;4950002;28;96984;-76
2021/04/07 07:17:35;;;;;;;10.13;5.10;;;;;;;1.17;37.47;100641.38;4965632;28;99486;-75
2021/04/07 07:20:04;;;;;;;9.15;6.25;;;;;;;1.16;37.42;100637.84;4963243;28;97920;-73
2021/04/07 07:22:30;;;;;;;6.10;5.07;;;;;;;1.17;37.33;100633.53;4966606;28;96978;-73
2021/04/07 07:25:02;;;;;;;5.65;5.22;;;;;;;1.22;37.30;100639.91;4953867;28;98388;-74
2021/04/07 07:27:39;;;;;;;5.97;5.57;;;;;;;1.26;37.73;100646.22;4948906;28;97647;-74
2021/04/07 07:30:08;;;;;;;6.20;5.13;;;;;;;1.33;37.36;100649.28;4949088;28;99801;-74
2021/04/07 07:32:37;;;;;;;6.38;5.20;;;;;;;1.34;37.55;100642.31;4965004;28;98610;-72
2021/04/07 07:35:06;;;;;;;10.30;5.20;;;;;;;1.39;37.17;100646.09;4949523;28;97484;-73
2021/04/07 07:37:32;;;;;;;5.38;5.00;;;;;;;1.45;37.26;100646.44;4947796;28;97675;-73
2021/04/07 07:40:00;;;;;;;7.13;5.55;;;;;;;1.42;37.06;100628.81;4948770;28;99489;-73
2021/04/07 07:42:28;;;;;;;9.55;5.35;;;;;;;1.44;36.87;100645.53;4965523;28;97866;-73
2021/04/07 07:44:55;;;;;;;11.15;5.32;;;;;;;1.47;36.47;100644.81;4970524;28;96924;-74
2021/04/07 07:47:26;;;;;;;5.35;4.95;;;;;;;1.45;37.21;100649.94;4968429;28;97606;-75
2021/04/07 07:49:57;;;;;;;7.57;4.90;;;;;;;1.44;36.93;100661.25;4968105;28;97171;-73
2021/04/07 07:52:30;;;;;;;5.30;4.88;;;;;;;1.49;36.64;100672.03;4967439;28;97690;-74
2021/04/07 07:54:57;;;;;;;6.53;4.68;;;;;;;1.53;36.46;100672.25;4952360;28;97051;-73
2021/04/07 07:57:25;;;;;;;5.00;4.60;;;;;;;1.62;36.71;100674.47;4949282;28;99983;-75
2021/04/07 07:59:56;;;;;;;5.07;4.60;;;;;;;1.64;36.79;100665.88;4932608;28;100270;-73
2021/04/07 08:02:28;;;;;;;5.13;4.72;;;;;;;1.74;36.26;100660.34;4967145;28;98037;-74
2021/04/07 08:04:56;;;;;;;5.15;4.75;;;;;;;1.84;36.28;100657.38;4963261;28;97318;-73
2021/04/07 08:07:33;;;;;;;5.93;3.97;;;;;;;1.87;36.49;100660.16;4946944;28;100919;-75
2021/04/07 08:09:59;;;;;;;5.10;4.43;;;;;;;1.94;36.86;100659.69;4964121;28;99282;-74
2021/04/07 08:12:29;;;;;;;5.28;4.75;;;;;;;2.07;36.08;100674.34;4963300;28;97084;-75
2021/04/07 08:14:56;;;;;;;7.22;4.45;;;;;;;2.08;35.80;100663.94;4965107;28;96824;-74
2021/04/07 08:17:24;;;;;;;8.50;4.60;;;;;;;2.10;35.66;100658.81;4945950;28;100578;-74
2021/04/07 08:19:51;;;;;;;5.18;4.75;;;;;;;2.09;36.39;100665.75;4947581;28;99369;-74
2021/04/07 08:22:18;;;;;;;6.90;4.72;;;;;;;2.14;36.05;100664.28;4966392;28;96840;-74
2021/04/07 08:24:46;;;;;;;9.73;4.60;;;;;;;2.17;35.54;100661.84;4946794;28;97260;-74
2021/04/07 08:27:13;;;;;;;5.10;4.55;;;;;;;2.27;35.47;100667.56;4966636;28;98900;-73
2021/04/07 08:29:41;;;;;;;9.15;4.72;;;;;;;2.24;35.82;100672.66;4962846;28;98774;-73
2021/04/07 08:32:08;;;;;;;8.05;4.20;;;;;;;2.24;35.43;100683.16;4965418;28;97124;-73
2021/04/07 08:34:35;;;;;;;4.72;4.47;;;;;;;2.22;35.64;100677.81;4963390;28;97401;-74
2021/04/07 08:37:02;;;;;;;5.95;4.57;;;;;;;2.27;36.15;100685.94;4964574;28;97759;-74
2021/04/07 08:39:29;;;;;;;5.22;4.22;;;;;;;2.29;35.85;100674.72;4978850;28;99586;-74
2021/04/07 08:41:56;;;;;;;6.03;4.40;;;;;;;2.34;35.83;100681.09;4957199;28;97125;-74
2021/04/07 08:44:23;;;;;;;11.13;4.90;;;;;;;2.36;35.23;100694.28;4963343;28;98134;-73
2021/04/07 08:46:53;;;;;;;7.30;5.95;;;;;;;2.35;35.24;100676.72;4963558;28;97796;-73
2021/04/07 08:49:35;;;;;;;5.28;4.78;;;;;;;2.33;35.01;100667.88;4964815;28;97762;-75
2021/04/07 08:52:13;;;;;;;4.80;4.47;;;;;;;2.42;35.07;100690.25;4965700;28;97715;-74
2021/04/07 08:54:45;;;;;;;5.28;4.13;;;;;;;2.48;35.29;100684.41;4946110;28;96957;-74
2021/04/07 08:57:24;;;;;;;5.07;4.28;;;;;;;2.46;34.52;100691.31;4980464;28;99346;-75
2021/04/07 08:59:55;;;;;;;4.65;4.20;;;;;;;2.55;35.59;100686.53;4966607;28;97627;-75
2021/04/07 09:02:22;;;;;;;5.15;4.55;;;;;;;2.58;34.87;100691.97;4947668;28;96929;-74
2021/04/07 09:05:01;;;;;;;5.03;4.57;;;;;;;2.67;34.59;100688.09;4948173;28;97404;-75
2021/04/07 09:07:39;;;;;;;5.03;4.35;;;;;;;2.72;34.81;100685.69;4945219;28;99638;-74
2021/04/07 09:10:16;;;;;;;6.28;3.88;;;;;;;2.70;34.43;100705.72;4964305;28;98133;-74
2021/04/07 09:12:46;;;;;;;8.32;4.72;;;;;;;2.66;34.76;100683.63;4963928;28;97837;-75
2021/04/07 09:15:17;;;;;;;6.32;4.63;;;;;;;2.66;34.17;100709.91;4963873;28;97058;-74
2021/04/07 09:17:47;;;;;;;4.70;4.35;;;;;;;2.77;34.84;100685.09;4964929;28;97564;-74
2021/04/07 09:20:34;;;;;;;8.30;4.57;;;;;;;2.89;34.74;100690.94;4979223;28;98740;-74
2021/04/07 09:23:09;;;;;;;5.10;4.47;;;;;;;2.85;33.97;100702.16;4952134;28;97335;-74
2021/04/07 09:25:37;;;;;;;4.80;4.45;;;;;;;2.89;34.67;100690.94;4947140;28;97494;-74
2021/04/07 09:28:06;;;;;;;5.00;4.50;;;;;;;2.96;34.77;100681.66;4964921;28;99055;-74
2021/04/07 09:30:43;;;;;;;4.57;4.32;;;;;;;3.00;34.53;100687.13;4977806;28;97800;-73
2021/04/07 09:33:11;;;;;;;5.25;4.80;;;;;;;3.07;34.65;100691.91;4964516;28;97815;-73
2021/04/07 09:35:38;;;;;;;5.80;4.90;;;;;;;3.16;34.63;100697.59;4947976;28;97239;-73
2021/04/07 09:38:05;;;;;;;5.00;4.45;;;;;;;3.19;34.72;100700.38;4963490;28;97938;-73
2021/04/07 09:40:32;;;;;;;4.82;4.53;;;;;;;3.18;34.01;100695.03;4964579;28;98048;-72
2021/04/07 09:42:59;;;;;;;5.28;4.63;;;;;;;3.19;34.53;100702.09;4965770;28;98138;-73
2021/04/07 09:45:27;;;;;;;6.85;4.45;;;;;;;3.10;34.53;100701.63;4979970;28;96904;-72
2021/04/07 09:47:55;;;;;;;6.32;4.53;;;;;;;3.01;34.66;100691.59;4946929;28;101190;-73
2021/04/07 09:50:28;;;;;;;5.03;4.60;;;;;;;3.00;33.87;100691.50;4946954;28;99328;-72
2021/04/07 09:52:55;;;;;;;4.25;4.03;;;;;;;3.01;34.75;100711.69;4946222;28;96925;-73
2021/04/07 09:55:22;;;;;;;5.28;4.88;;;;;;;3.00;34.65;100700.28;4964943;28;97884;-73
2021/04/07 09:58:00;;;;;;;4.70;4.40;;;;;;;3.03;34.29;100699.53;4948201;28;96997;-73
2021/04/07 10:00:32;;;;;;;5.13;4.78;;;;;;;3.12;34.09;100702.63;4945993;28;97818;-73
2021/04/07 10:03:01;;;;;;;5.72;5.32;;;;;;;3.12;34.16;100700.00;4964991;28;96684;-72
2021/04/07 10:05:30;;;;;;;4.90;4.60;;;;;;;3.10;34.26;100714.78;4965807;28;97485;-73
2021/04/07 10:08:14;;;;;;;6.50;5.15;;;;;;;3.16;34.41;100699.31;4976848;28;98211;-72
2021/04/07 10:10:41;;;;;;;4.70;4.40;;;;;;;3.21;34.25;100695.19;4962434;28;99312;-73
2021/04/07 10:13:09;;;;;;;5.72;5.30;;;;;;;3.29;34.24;100703.44;4979034;28;96899;-73
2021/04/07 10:15:37;;;;;;;5.28;4.82;;;;;;;3.28;34.25;100702.53;4964182;28;97948;-73
2021/04/07 10:18:09;;;;;;;5.03;4.78;;;;;;;3.30;34.75;100703.53;4946665;28;97786;-74
2021/04/07 10:20:37;;;;;;;5.30;4.80;;;;;;;3.33;34.22;100706.28;4962520;28;98719;-73
2021/04/07 10:23:08;;;;;;;5.32;4.93;;;;;;;3.32;34.26;100707.13;4944433;28;97058;-73
2021/04/07 10:25:35;;;;;;;4.43;4.22;;;;;;;3.36;34.22;100706.47;4945535;28;97296;-73
2021/04/07 10:28:03;;;;;;;4.85;4.43;;;;;;;3.38;34.47;100707.44;4962231;28;99317;-73
2021/04/07 10:30:41;;;;;;;5.07;4.68;;;;;;;3.38;34.67;100703.91;4963349;28;97876;-73
2021/04/07 10:33:27;;;;;;;5.47;5.05;;;;;;;3.32;34.02;100706.22;4976081;28;97226;-74
2021/04/07 10:35:59;;;;;;;6.03;5.28;;;;;;;3.32;34.59;100707.13;4945095;28;98208;-73
2021/04/07 10:38:29;;;;;;;6.57;4.82;;;;;;;3.33;33.97;100710.66;4943523;28;99081;-73
2021/04/07 10:41:01;;;;;;;5.10;4.70;;;;;;;3.38;34.61;100715.31;4942107;28;97886;-73
2021/04/07 10:43:33;;;;;;;5.78;5.38;;;;;;;3.37;33.87;100708.25;4944794;28;96911;-73
2021/04/07 10:46:03;;;;;;;6.25;5.65;;;;;;;3.46;34.35;100702.56;4963033;28;98147;-73
2021/04/07 10:48:35;;;;;;;5.97;5.43;;;;;;;3.51;34.02;100695.78;4976050;28;102313;-73
2021/04/07 10:51:04;;;;;;;7.18;6.18;;;;;;;3.48;34.10;100699.16;4946649;28;100604;-73
2021/04/07 10:53:33;;;;;;;8.43;6.32;;;;;;;3.47;34.75;100705.25;4946093;28;97768;-73
2021/04/07 10:56:02;;;;;;;7.85;7.07;;;;;;;3.53;34.01;100697.63;4946100;28;97258;-73
2021/04/07 10:58:29;;;;;;;8.40;6.53;;;;;;;3.59;34.51;100700.56;4963011;28;98669;-73
2021/04/07 11:00:56;;;;;;;6.60;6.00;;;;;;;3.65;34.45;100711.41;4944466;28;97610;-73
2021/04/07 11:03:30;;;;;;;6.32;5.82;;;;;;;3.67;34.28;100691.34;4941159;28;99122;-73
2021/04/07 11:05:57;;;;;;;6.35;5.80;;;;;;;3.73;34.18;100696.00;4943375;28;97495;-73
2021/04/07 11:08:35;;;;;;;6.80;6.18;;;;;;;3.72;34.54;100702.97;4960221;28;97729;-73
2021/04/07 11:11:03;;;;;;;7.28;6.22;;;;;;;3.73;34.60;100704.78;4964015;28;98084;-74
2021/04/07 11:13:31;;;;;;;6.13;5.53;;;;;;;3.73;34.31;100717.06;4963784;28;97748;-74
2021/04/07 11:16:08;;;;;;;6.80;6.07;;;;;;;3.72;34.36;100689.81;4946297;28;97299;-73
2021/04/07 11:18:37;;;;;;;6.90;6.35;;;;;;;3.80;33.98;100691.09;4961874;28;97633;-74
2021/04/07 11:21:06;;;;;;;6.93;6.43;;;;;;;3.89;34.07;100696.78;4934735;28;98863;-73
2021/04/07 11:23:35;;;;;;;8.43;6.47;;;;;;;3.96;34.13;100690.97;4977820;28;97488;-73
2021/04/07 11:26:04;;;;;;;7.28;6.60;;;;;;;4.00;33.95;100699.91;4946275;28;97026;-73
2021/04/07 11:28:31;;;;;;;8.63;6.28;;;;;;;3.99;34.02;100700.72;4976261;28;97149;-73
2021/04/07 11:31:05;;;;;;;7.57;6.68;;;;;;;4.01;34.20;100684.19;4944613;28;99122;-73
2021/04/07 11:33:39;;;;;;;7.53;6.82;;;;;;;4.04;34.30;100693.97;4942709;28;97589;-72
2021/04/07 11:36:42;;;;;;;6.88;6.25;;;;;;;4.09;33.83;100695.06;4945357;28;99077;-73
2021/04/07 11:39:36;;;;;;;6.93;6.28;;;;;;;4.07;33.84;100687.09;4975216;28;99275;-73